x

Ilm2 - 5 Miles Se Of Wrightsville Beach, Nc (41038) Weather Station

5:08am - Fri 9th Dec 2016 All times are EST. -5 hours from GMT.

  • Wind
    20mph, 40mph gusts
  • Sea Temp 61°f
  • 空気 Temp 40°f
  • Sea Pressure 1024.2mb
  • Ilm2 - 5 Miles Se Of Wrightsville Beach, Nc
  • Ilm2 - 5 Miles Se Of Wrightsville Beach, Nc

More Historic Weather Station data

Upgrade to MSW Pro to gain access to the past 30 days of data for over 8000 Wavebouys and Weather Stations around the globe.

Join Pro

Comparision Forecast

View Surf forecast
   
Fri 12/09 5:08am 20 40 mph 1024.2mb 61f 40f
4:08am 20 36 mph 1023.7mb 61f 42f
2:08am 20 36 mph 1022.9mb 61f 45f
1:08am 22 31 mph 1022.1mb 61f 46f
Thu 12/08 11:08pm 20 29 mph 1022.5mb 61f 48f
10:08pm 20 34 mph 1022.2mb 61f 48f
9:08pm 18 34 mph 1021.8mb 61f 49f
8:08pm 20 34 mph 1021.2mb 61f 49f
7:08pm 20 31 mph 1021.2mb 61f 51f
6:08pm 20 31 mph 1020.4mb 61f 52f
5:08pm 18 29 mph 1019.1mb 61f 54f
4:08pm 13 22 mph 1017.6mb 61f 54f
3:08pm 13 25 mph 1016.1mb 62f 57f
2:08pm 11 16 mph 1016.7mb 62f 58f
1:08pm 11 18 mph 1016.8mb 62f 57f
12:08pm 13 20 mph 1017.5mb 62f 56f
11:08am 11 18 mph 1018.6mb 62f 54f
10:08am 13 20 mph 1019.1mb 62f 52f
9:08am 11 18 mph 1018.5mb 61f 51f
8:08am 11 16 mph 1017.9mb 61f 50f
7:08am 13 25 mph 1017.6mb 61f 50f
6:08am 16 22 mph 1017.3mb 62f 51f
5:08am 16 18 mph 1016.6mb 62f 53f
4:08am 9 13 mph 1017.2mb 62f 55f
3:08am 2 4 mph 1017.5mb 62f 56f
2:08am  -  2 mph 1017.7mb 62f 55f
12:08am 7 11 mph 1017.8mb 62f 54f
Wed 12/07 11:08pm 4 7 mph 1018.6mb 62f 55f
10:08pm 2 4 mph 1018.2mb 61f 55f
9:08pm  -  2 mph 1018mb 61f 55f
8:08pm 2 4 mph 1018.2mb 61f 55f
7:08pm 4 9 mph 1017.8mb 61f 55f
6:08pm 9 13 mph 1017.7mb 61f 55f
3:08pm 7 9 mph 1016.8mb 62f 57f
2:08pm 4 9 mph 1016.3mb 62f 56f
12:08pm 11 18 mph 1016.7mb 61f 54f
11:08am 13 20 mph 1017.4mb 61f 51f
10:08am 11 18 mph 1017.4mb 61f 49f
9:08am 16 22 mph 1017.4mb 61f 46f
8:08am 16 25 mph 1016.6mb 61f 45f
7:08am 18 27 mph 1015.8mb 61f 44f
6:08am 18 27 mph 1014.4mb 61f 45f
5:08am 16 27 mph 1013.5mb 61f 46f
4:08am 20 27 mph 1012.5mb 61f 47f
3:08am 16 25 mph 1012.2mb 61f 48f
1:08am 18 29 mph 1010.2mb 62f 50f
12:08am 20 31 mph 1010.2mb 62f 51f
Tue 12/06 11:08pm 22 36 mph 1009.6mb 62f 52f
10:08pm 20 34 mph 1008.9mb 62f 53f
9:08pm 25 40 mph 1008.4mb 61f 54f
7:08pm 22 31 mph 1005.8mb 61f 60f
6:08pm 20 29 mph 1004.9mb 61f 62f
5:08pm 18 25 mph 1004.3mb 62f 62f
4:08pm 13 18 mph 1003.6mb 62f 61f
3:08pm 7 11 mph 1002.8mb 62f 62f
2:08pm 4 9 mph 1003.1mb 62f 61f
1:08pm 7 13 mph 1002.3mb 62f 61f
12:08pm 7 13 mph 1006.3mb 62f 61f
11:08am 20 34 mph 1007.2mb 62f 62f
10:08am 13 25 mph 1008.5mb 62f 59f
9:08am 16 25 mph 1008.9mb 62f 60f
8:08am 18 27 mph 1010.2mb 62f 59f
6:08am 20 36 mph 1010.9mb 62f 54f
4:08am 18 34 mph 1013.7mb 62f 50f
3:08am 18 31 mph 1014.3mb 62f 50f
2:08am 16 25 mph 1015.9mb 62f 50f
1:08am 18 31 mph 1015.5mb 62f 51f
12:08am 16 29 mph 1015.8mb 62f 51f
Mon 12/05 11:08pm 16 38 mph 1015.6mb 62f 52f
10:08pm 16 29 mph 1015.8mb 62f 54f
8:08pm 13 25 mph 1016.6mb 62f 57f
7:08pm 13 22 mph 1016.3mb 62f 57f
6:08pm 13 22 mph 1015.1mb 62f 57f
5:08pm 9 16 mph 1015.1mb 62f 56f
4:08pm 11 20 mph 1014.5mb 62f 58f
3:08pm 9 16 mph 1014.5mb 62f 58f
2:08pm 13 20 mph 1013.7mb 63f 57f
1:08pm 11 22 mph 1014mb 63f 54f
12:08pm 9 16 mph 1014.3mb 63f 51f